Time;durP1;ratioP1;P1;durP2;ratioP2;P2;SDS_P1;SDS_P2;PMS_P1;PMS_P2;Temp;Humidity;BMP_temperature;BMP_pressure;BME280_temperature;BME280_humidity;BME280_pressure;Samples;Min_cycle;Max_cycle;Signal;HPM_P1;HPM_P2
2023/03/09 00:02:09;;;;;;;44.95;18.95;;;;;;;;;;5032894;28;20029;-62
2023/03/09 00:04:35;;;;;;;45.08;18.25;;;;;;;;;;5033093;28;20076;-62
2023/03/09 00:07:00;;;;;;;49.17;18.77;;;;;;;;;;5031107;28;20758;-62
2023/03/09 00:09:25;;;;;;;45.65;18.25;;;;;;;;;;5032084;28;20045;-62
2023/03/09 00:11:51;;;;;;;48.60;18.83;;;;;;;;;;5032418;28;20025;-62
2023/03/09 00:14:20;;;;;;;47.13;19.35;;;;;;;;;;5033499;28;20033;-62
2023/03/09 00:16:46;;;;;;;44.50;19.20;;;;;;;;;;5031477;28;20037;-62
2023/03/09 00:19:11;;;;;;;45.15;18.40;;;;;;;;;;5032374;28;20082;-62
2023/03/09 00:21:39;;;;;;;46.33;18.50;;;;;;;;;;5033135;28;20091;-62
2023/03/09 00:24:12;;;;;;;42.70;17.00;;;;;;;;;;5032487;28;20036;-62
2023/03/09 00:26:41;;;;;;;41.05;17.05;;;;;;;;;;5033120;28;20060;-62
2023/03/09 00:29:09;;;;;;;40.88;17.10;;;;;;;;;;5031348;28;20037;-62
2023/03/09 00:31:35;;;;;;;42.78;16.73;;;;;;;;;;5033446;28;20033;-62
2023/03/09 00:34:01;;;;;;;40.95;16.98;;;;;;;;;;5030638;28;20111;-62
2023/03/09 00:36:26;;;;;;;42.47;17.48;;;;;;;;;;5032475;28;20382;-62
2023/03/09 00:38:53;;;;;;;40.92;17.45;;;;;;;;;;5029574;28;20131;-62
2023/03/09 00:41:20;;;;;;;37.58;16.25;;;;;;;;;;5033021;28;20444;-62
2023/03/09 00:43:46;;;;;;;37.20;16.35;;;;;;;;;;5032288;28;20033;-61
2023/03/09 00:46:12;;;;;;;38.30;16.60;;;;;;;;;;5032771;28;20033;-61
2023/03/09 00:48:38;;;;;;;38.20;15.90;;;;;;;;;;5030814;28;20126;-62
2023/03/09 00:51:04;;;;;;;38.13;16.25;;;;;;;;;;5014157;28;20121;-62
2023/03/09 00:53:29;;;;;;;41.78;16.35;;;;;;;;;;5031640;28;20536;-62
2023/03/09 00:55:54;;;;;;;37.88;16.35;;;;;;;;;;5032326;28;20029;-62
2023/03/09 00:58:20;;;;;;;36.20;16.83;;;;;;;;;;5031201;28;20121;-62
2023/03/09 01:00:45;;;;;;;37.97;16.30;;;;;;;;;;5032113;28;20108;-62
2023/03/09 01:03:11;;;;;;;38.75;16.08;;;;;;;;;;5031089;28;20060;-62
2023/03/09 01:05:37;;;;;;;40.17;16.05;;;;;;;;;;5034006;28;20086;-62
2023/03/09 01:08:03;;;;;;;34.58;15.60;;;;;;;;;;5030096;28;20636;-62
2023/03/09 01:10:28;;;;;;;35.47;15.52;;;;;;;;;;5033539;28;20525;-62
2023/03/09 01:12:55;;;;;;;37.67;15.38;;;;;;;;;;5031063;28;20026;-62
2023/03/09 01:15:20;;;;;;;36.85;14.90;;;;;;;;;;5033508;28;20072;-62
2023/03/09 01:17:47;;;;;;;34.42;14.65;;;;;;;;;;5030038;28;20119;-62
2023/03/09 01:20:13;;;;;;;37.92;16.08;;;;;;;;;;5030424;28;20083;-62
2023/03/09 01:22:39;;;;;;;41.35;16.30;;;;;;;;;;5031124;28;20042;-62
2023/03/09 01:25:05;;;;;;;35.75;15.00;;;;;;;;;;5031233;28;20036;-62
2023/03/09 01:27:31;;;;;;;34.88;14.90;;;;;;;;;;5032315;28;20102;-63
2023/03/09 01:29:56;;;;;;;40.95;15.38;;;;;;;;;;5030838;28;20041;-62
2023/03/09 01:32:22;;;;;;;38.17;16.45;;;;;;;;;;5012128;28;20060;-62
2023/03/09 01:34:47;;;;;;;38.42;15.35;;;;;;;;;;5030152;28;20037;-62
2023/03/09 01:37:13;;;;;;;38.40;15.57;;;;;;;;;;5030950;28;20033;-62
2023/03/09 01:39:38;;;;;;;42.67;16.80;;;;;;;;;;5029458;28;20037;-61
2023/03/09 01:42:03;;;;;;;39.63;15.88;;;;;;;;;;5029806;28;20454;-61
2023/03/09 01:44:29;;;;;;;42.85;16.20;;;;;;;;;;5032240;28;20532;-62
2023/03/09 01:46:56;;;;;;;41.65;15.98;;;;;;;;;;5031406;28;20479;-62
2023/03/09 01:49:28;;;;;;;39.50;15.45;;;;;;;;;;5029546;28;20037;-62
2023/03/09 01:51:56;;;;;;;38.53;16.27;;;;;;;;;;5013609;28;20099;-61
2023/03/09 01:54:39;;;;;;;43.72;16.38;;;;;;;;;;5030048;28;20033;-62
2023/03/09 01:57:32;;;;;;;41.92;16.50;;;;;;;;;;5031324;28;20039;-62
2023/03/09 02:00:07;;;;;;;42.80;17.00;;;;;;;;;;5027410;28;20037;-62
2023/03/09 02:02:37;;;;;;;39.88;16.20;;;;;;;;;;5028558;28;20053;-62
2023/03/09 02:05:06;;;;;;;39.50;16.73;;;;;;;;;;5031911;28;20119;-61
2023/03/09 02:07:35;;;;;;;40.40;16.65;;;;;;;;;;5031061;28;20367;-62
2023/03/09 02:10:06;;;;;;;38.30;15.93;;;;;;;;;;5011208;28;21680;-63
2023/03/09 02:12:31;;;;;;;38.08;16.08;;;;;;;;;;5020807;28;20076;-62
2023/03/09 02:14:57;;;;;;;42.03;17.50;;;;;;;;;;5031514;28;20474;-62
2023/03/09 02:17:23;;;;;;;40.55;15.95;;;;;;;;;;5029209;28;20045;-61
2023/03/09 02:19:56;;;;;;;43.45;17.25;;;;;;;;;;5031425;28;20080;-62
2023/03/09 02:22:21;;;;;;;37.03;15.32;;;;;;;;;;5028175;28;20026;-61
2023/03/09 02:24:55;;;;;;;43.08;17.13;;;;;;;;;;5031037;28;20043;-61
2023/03/09 02:27:23;;;;;;;42.58;16.83;;;;;;;;;;5029427;28;20064;-61
2023/03/09 02:29:49;;;;;;;41.65;16.30;;;;;;;;;;5031767;28;20076;-62
2023/03/09 02:32:15;;;;;;;44.10;17.50;;;;;;;;;;5024035;28;20438;-62
2023/03/09 02:34:40;;;;;;;40.45;16.02;;;;;;;;;;5022480;28;20033;-62
2023/03/09 02:37:27;;;;;;;39.83;16.58;;;;;;;;;;5028007;28;20048;-62
2023/03/09 02:39:56;;;;;;;38.10;16.13;;;;;;;;;;5029568;28;20390;-62
2023/03/09 02:42:23;;;;;;;45.70;18.30;;;;;;;;;;5028803;28;20026;-63
2023/03/09 02:44:49;;;;;;;40.00;16.15;;;;;;;;;;5029664;28;20045;-62
2023/03/09 02:47:20;;;;;;;44.35;17.70;;;;;;;;;;5029082;28;20044;-63
2023/03/09 02:49:46;;;;;;;42.17;16.83;;;;;;;;;;5018648;28;20087;-63
2023/03/09 02:52:11;;;;;;;41.92;16.75;;;;;;;;;;5029708;28;20033;-63
2023/03/09 02:54:37;;;;;;;42.03;16.92;;;;;;;;;;5030996;28;20482;-63
2023/03/09 02:57:02;;;;;;;39.97;16.55;;;;;;;;;;5029161;28;20029;-63
2023/03/09 02:59:28;;;;;;;37.05;16.10;;;;;;;;;;5030533;28;20033;-63
2023/03/09 03:01:53;;;;;;;40.60;16.75;;;;;;;;;;5029175;28;20112;-62
2023/03/09 03:04:19;;;;;;;44.85;18.73;;;;;;;;;;5029740;28;20038;-63
2023/03/09 03:06:44;;;;;;;40.15;16.20;;;;;;;;;;5029688;28;20053;-63
2023/03/09 03:09:10;;;;;;;41.65;16.90;;;;;;;;;;5029656;28;20574;-64
2023/03/09 03:11:35;;;;;;;41.92;17.85;;;;;;;;;;5027229;28;22040;-63
2023/03/09 03:14:01;;;;;;;42.85;17.30;;;;;;;;;;5027969;28;20453;-63
2023/03/09 03:16:26;;;;;;;45.22;17.35;;;;;;;;;;5030121;28;20029;-62
2023/03/09 03:18:52;;;;;;;43.42;17.45;;;;;;;;;;5034119;28;20128;-64
2023/03/09 03:21:17;;;;;;;40.53;16.65;;;;;;;;;;5034725;28;20045;-63
2023/03/09 03:23:43;;;;;;;44.22;18.17;;;;;;;;;;5034740;28;20025;-64
2023/03/09 03:26:10;;;;;;;41.95;17.40;;;;;;;;;;5033644;28;20493;-64
2023/03/09 03:28:36;;;;;;;41.30;17.50;;;;;;;;;;5032245;28;20428;-63
2023/03/09 03:31:02;;;;;;;47.13;18.65;;;;;;;;;;5033450;28;20163;-63
2023/03/09 03:33:28;;;;;;;46.75;18.65;;;;;;;;;;5031305;28;20662;-63
2023/03/09 03:35:53;;;;;;;42.60;17.90;;;;;;;;;;5029354;28;20034;-63
2023/03/09 03:38:19;;;;;;;43.42;17.67;;;;;;;;;;5032654;28;20025;-64
2023/03/09 03:40:44;;;;;;;43.92;17.42;;;;;;;;;;5033161;28;20128;-63
2023/03/09 03:43:10;;;;;;;45.70;18.98;;;;;;;;;;5023243;28;20029;-64
2023/03/09 03:45:35;;;;;;;47.60;18.08;;;;;;;;;;5034621;28;20053;-63
2023/03/09 03:48:00;;;;;;;45.13;18.52;;;;;;;;;;5032688;28;20432;-64
2023/03/09 03:50:26;;;;;;;49.45;18.88;;;;;;;;;;5034569;28;20043;-64
2023/03/09 03:52:51;;;;;;;44.40;17.65;;;;;;;;;;5033472;28;20116;-64
2023/03/09 03:55:17;;;;;;;45.10;17.60;;;;;;;;;;5034065;28;20040;-64
2023/03/09 03:57:42;;;;;;;43.33;17.75;;;;;;;;;;5031757;28;20037;-65
2023/03/09 04:00:11;;;;;;;48.85;18.63;;;;;;;;;;5031710;28;20378;-63
2023/03/09 04:02:39;;;;;;;48.97;18.63;;;;;;;;;;5033582;28;20061;-64
2023/03/09 04:05:06;;;;;;;44.90;18.30;;;;;;;;;;5031597;28;20108;-65
2023/03/09 04:07:31;;;;;;;53.55;20.85;;;;;;;;;;5032060;28;20105;-65
2023/03/09 04:09:57;;;;;;;50.60;19.02;;;;;;;;;;5031622;28;20135;-65
2023/03/09 04:12:22;;;;;;;48.78;18.42;;;;;;;;;;5030822;28;20091;-65
2023/03/09 04:14:48;;;;;;;47.95;19.17;;;;;;;;;;5031047;28;20483;-65
2023/03/09 04:17:13;;;;;;;46.67;18.90;;;;;;;;;;5025012;28;20022;-65
2023/03/09 04:19:39;;;;;;;49.70;18.65;;;;;;;;;;5029298;28;20485;-66
2023/03/09 04:22:05;;;;;;;45.15;18.58;;;;;;;;;;5033445;28;20030;-65
2023/03/09 04:24:30;;;;;;;54.30;19.42;;;;;;;;;;5032443;28;20433;-65
2023/03/09 04:26:56;;;;;;;50.58;19.15;;;;;;;;;;5033782;28;20432;-64
2023/03/09 04:29:21;;;;;;;53.97;19.73;;;;;;;;;;5032863;28;20033;-65
2023/03/09 04:31:46;;;;;;;48.50;19.05;;;;;;;;;;5033306;28;20037;-70
2023/03/09 04:34:12;;;;;;;48.88;18.25;;;;;;;;;;5031100;28;20026;-71
2023/03/09 04:36:38;;;;;;;47.88;18.52;;;;;;;;;;5031065;28;20087;-70
2023/03/09 04:39:06;;;;;;;49.83;18.90;;;;;;;;;;5033493;28;20057;-71
2023/03/09 04:41:32;;;;;;;50.40;19.55;;;;;;;;;;5031839;28;20109;-70
2023/03/09 04:43:58;;;;;;;46.53;19.02;;;;;;;;;;5032580;28;20485;-70
2023/03/09 04:46:23;;;;;;;45.05;18.10;;;;;;;;;;5015020;28;20454;-71
2023/03/09 04:48:49;;;;;;;47.75;18.58;;;;;;;;;;5032079;28;20045;-71
2023/03/09 04:51:14;;;;;;;50.10;18.90;;;;;;;;;;5031398;28;20029;-71
2023/03/09 04:53:39;;;;;;;44.28;18.48;;;;;;;;;;5034099;28;20426;-71
2023/03/09 04:56:05;;;;;;;49.38;19.27;;;;;;;;;;5033138;28;20450;-70
2023/03/09 04:58:31;;;;;;;48.42;19.27;;;;;;;;;;5016210;28;20034;-72
2023/03/09 05:00:56;;;;;;;48.45;19.65;;;;;;;;;;5033718;28;20029;-71
2023/03/09 05:03:21;;;;;;;51.88;19.17;;;;;;;;;;5033991;28;20025;-71
2023/03/09 05:05:47;;;;;;;53.15;18.83;;;;;;;;;;5033123;28;20116;-72
2023/03/09 05:08:12;;;;;;;49.72;19.25;;;;;;;;;;5033032;28;20034;-72
2023/03/09 05:10:38;;;;;;;48.30;18.63;;;;;;;;;;5015903;28;20037;-74
2023/03/09 05:13:04;;;;;;;59.55;20.17;;;;;;;;;;5014991;28;20565;-71
2023/03/09 05:15:29;;;;;;;55.47;20.23;;;;;;;;;;5033934;28;20035;-71
2023/03/09 05:17:55;;;;;;;56.97;19.48;;;;;;;;;;5034208;28;20124;-73
2023/03/09 05:20:20;;;;;;;52.15;19.73;;;;;;;;;;5032160;28;20041;-73
2023/03/09 05:22:46;;;;;;;55.38;20.33;;;;;;;;;;5033760;28;20033;-74
2023/03/09 05:25:11;;;;;;;53.17;19.95;;;;;;;;;;5032915;28;20036;-72
2023/03/09 05:27:37;;;;;;;54.17;20.45;;;;;;;;;;5016284;28;20029;-73
2023/03/09 05:30:03;;;;;;;52.53;20.27;;;;;;;;;;5033348;28;20029;-72
2023/03/09 05:32:29;;;;;;;55.33;19.50;;;;;;;;;;5033936;28;20524;-74
2023/03/09 05:34:54;;;;;;;53.50;20.42;;;;;;;;;;5033878;28;20029;-74
2023/03/09 05:37:19;;;;;;;59.53;21.70;;;;;;;;;;5030705;28;20033;-74
2023/03/09 05:39:45;;;;;;;53.25;20.95;;;;;;;;;;5033273;28;20037;-74
2023/03/09 05:42:10;;;;;;;56.15;20.45;;;;;;;;;;5032892;28;20033;-73
2023/03/09 05:44:36;;;;;;;58.28;20.65;;;;;;;;;;5033413;28;20453;-74
2023/03/09 05:47:01;;;;;;;61.67;21.90;;;;;;;;;;5031829;28;20026;-74
2023/03/09 05:49:30;;;;;;;56.08;20.75;;;;;;;;;;5033452;28;20041;-75
2023/03/09 05:51:57;;;;;;;53.53;19.48;;;;;;;;;;5015444;28;20033;-75
2023/03/09 05:54:22;;;;;;;51.53;19.90;;;;;;;;;;5032470;28;20393;-75
2023/03/09 05:56:48;;;;;;;58.97;20.23;;;;;;;;;;5033437;28;20040;-75
2023/03/09 05:59:13;;;;;;;62.03;22.02;;;;;;;;;;5032271;28;20040;-74
2023/03/09 06:01:39;;;;;;;67.15;21.05;;;;;;;;;;5031794;28;20022;-74
2023/03/09 06:04:05;;;;;;;59.00;20.48;;;;;;;;;;5032385;28;20080;-73
2023/03/09 06:06:31;;;;;;;51.97;20.45;;;;;;;;;;5032932;28;20083;-75
2023/03/09 06:08:56;;;;;;;57.33;20.52;;;;;;;;;;5032806;28;20042;-76
2023/03/09 06:11:21;;;;;;;62.28;20.60;;;;;;;;;;5031742;28;20095;-75
2023/03/09 06:13:47;;;;;;;60.03;21.30;;;;;;;;;;5014863;28;20382;-75
2023/03/09 06:16:15;;;;;;;56.15;20.88;;;;;;;;;;5031039;28;20029;-75
2023/03/09 06:18:41;;;;;;;56.72;20.35;;;;;;;;;;5032627;28;20119;-75
2023/03/09 06:21:07;;;;;;;55.85;20.30;;;;;;;;;;5031556;28;20064;-74
2023/03/09 06:23:35;;;;;;;56.22;20.98;;;;;;;;;;5032366;28;20060;-73
2023/03/09 06:26:06;;;;;;;59.53;21.75;;;;;;;;;;5032203;28;20033;-70
2023/03/09 06:28:32;;;;;;;57.35;20.67;;;;;;;;;;5032697;28;20033;-74
2023/03/09 06:30:57;;;;;;;56.30;20.52;;;;;;;;;;5031704;28;20037;-74
2023/03/09 06:33:23;;;;;;;55.75;19.67;;;;;;;;;;5013145;28;20887;-73
2023/03/09 06:35:48;;;;;;;54.53;20.65;;;;;;;;;;5032393;28;20022;-73
2023/03/09 06:38:13;;;;;;;51.05;20.48;;;;;;;;;;5031422;28;20031;-72
2023/03/09 06:40:39;;;;;;;53.47;21.27;;;;;;;;;;5031009;28;20064;-72
2023/03/09 06:43:05;;;;;;;59.83;21.15;;;;;;;;;;5031492;28;20029;-69
2023/03/09 06:45:30;;;;;;;54.83;20.00;;;;;;;;;;5032114;28;20061;-73
2023/03/09 06:47:56;;;;;;;56.33;21.45;;;;;;;;;;5030776;28;20073;-71
2023/03/09 06:50:24;;;;;;;58.08;21.35;;;;;;;;;;5031302;28;20601;-72
2023/03/09 06:52:49;;;;;;;52.22;20.02;;;;;;;;;;5014233;28;20064;-70
2023/03/09 06:55:15;;;;;;;55.40;21.25;;;;;;;;;;5030953;28;20025;-70
2023/03/09 06:57:41;;;;;;;55.67;21.65;;;;;;;;;;5014507;28;20029;-70
2023/03/09 07:00:09;;;;;;;54.72;21.08;;;;;;;;;;5031178;28;20378;-69
2023/03/09 07:02:34;;;;;;;53.60;21.50;;;;;;;;;;5031019;28;20069;-71
2023/03/09 07:05:00;;;;;;;50.42;20.90;;;;;;;;;;5031724;28;20470;-71
2023/03/09 07:07:25;;;;;;;55.45;20.92;;;;;;;;;;5013505;28;20064;-71
2023/03/09 07:09:51;;;;;;;57.45;21.83;;;;;;;;;;5031963;28;20116;-70
2023/03/09 07:12:16;;;;;;;62.20;22.58;;;;;;;;;;4997100;28;20088;-70
2023/03/09 07:14:42;;;;;;;55.75;21.17;;;;;;;;;;5032020;28;20025;-70
2023/03/09 07:17:11;;;;;;;56.45;21.30;;;;;;;;;;5012905;28;20067;-69
2023/03/09 07:19:37;;;;;;;53.97;21.13;;;;;;;;;;5014045;28;20466;-68
2023/03/09 07:22:02;;;;;;;61.08;23.20;;;;;;;;;;5031780;28;20037;-70
2023/03/09 07:24:28;;;;;;;57.97;21.95;;;;;;;;;;5031185;28;20366;-68
2023/03/09 07:26:53;;;;;;;51.00;20.75;;;;;;;;;;5031843;28;20022;-67
2023/03/09 07:29:19;;;;;;;60.63;22.23;;;;;;;;;;5030705;28;20021;-69
2023/03/09 07:31:46;;;;;;;54.72;21.45;;;;;;;;;;5030413;28;20060;-67
2023/03/09 07:34:11;;;;;;;60.22;22.25;;;;;;;;;;4996886;28;20457;-67
2023/03/09 07:36:37;;;;;;;53.30;21.63;;;;;;;;;;5013658;28;20032;-67
2023/03/09 07:39:02;;;;;;;57.20;22.25;;;;;;;;;;5031396;28;20112;-68
2023/03/09 07:41:28;;;;;;;56.28;22.40;;;;;;;;;;4996569;28;20033;-68
2023/03/09 07:43:53;;;;;;;52.25;20.40;;;;;;;;;;5031358;28;20466;-67
2023/03/09 07:46:19;;;;;;;52.58;21.75;;;;;;;;;;5029328;28;20076;-66
2023/03/09 07:48:45;;;;;;;52.08;22.13;;;;;;;;;;5030110;28;20391;-66
2023/03/09 07:51:11;;;;;;;55.83;21.30;;;;;;;;;;5030572;28;20033;-67
2023/03/09 07:53:39;;;;;;;51.45;21.60;;;;;;;;;;5013634;28;20057;-66
2023/03/09 07:56:06;;;;;;;53.67;21.20;;;;;;;;;;5031246;28;20097;-67
2023/03/09 07:58:36;;;;;;;51.65;20.63;;;;;;;;;;5012339;28;20068;-68
2023/03/09 08:01:02;;;;;;;52.87;21.27;;;;;;;;;;5034351;28;20117;-67
2023/03/09 08:03:29;;;;;;;53.63;20.70;;;;;;;;;;5034037;28;20036;-68
2023/03/09 08:05:58;;;;;;;51.47;21.38;;;;;;;;;;5017215;28;20035;-68
2023/03/09 08:08:26;;;;;;;57.83;21.48;;;;;;;;;;5016662;28;20037;-68
2023/03/09 08:10:52;;;;;;;57.40;21.73;;;;;;;;;;5034779;28;20104;-68
2023/03/09 08:13:19;;;;;;;49.53;21.23;;;;;;;;;;5033459;28;20034;-67
2023/03/09 08:15:44;;;;;;;54.47;20.35;;;;;;;;;;5017180;28;20172;-67
2023/03/09 08:18:12;;;;;;;52.33;20.80;;;;;;;;;;5034184;28;20120;-65
2023/03/09 08:20:38;;;;;;;59.25;21.92;;;;;;;;;;5016981;28;20559;-67
2023/03/09 08:23:03;;;;;;;55.70;21.05;;;;;;;;;;5034657;28;20140;-67
2023/03/09 08:25:30;;;;;;;54.70;21.40;;;;;;;;;;5033947;28;20033;-66
2023/03/09 08:27:56;;;;;;;53.95;21.95;;;;;;;;;;5033773;28;20025;-67
2023/03/09 08:30:22;;;;;;;52.13;21.52;;;;;;;;;;5033916;28;20091;-66
2023/03/09 08:32:51;;;;;;;48.00;20.55;;;;;;;;;;5034680;28;20116;-64
2023/03/09 08:35:18;;;;;;;50.20;20.77;;;;;;;;;;5016106;28;20029;-66
2023/03/09 08:37:43;;;;;;;51.97;20.83;;;;;;;;;;5034552;28;20201;-65
2023/03/09 08:40:10;;;;;;;51.30;20.88;;;;;;;;;;5033912;28;20112;-63
2023/03/09 08:42:35;;;;;;;56.13;21.48;;;;;;;;;;5032763;28;20039;-66
2023/03/09 08:45:01;;;;;;;56.88;21.83;;;;;;;;;;5034345;28;20049;-66
2023/03/09 08:47:27;;;;;;;55.33;20.95;;;;;;;;;;5034046;28;20029;-68
2023/03/09 08:49:52;;;;;;;51.83;21.13;;;;;;;;;;5034594;28;20382;-66
2023/03/09 08:52:18;;;;;;;55.47;22.27;;;;;;;;;;5033610;28;20516;-64
2023/03/09 08:54:43;;;;;;;52.40;20.65;;;;;;;;;;5034254;28;20064;-67
2023/03/09 08:57:08;;;;;;;58.72;21.20;;;;;;;;;;5033372;28;20529;-64
2023/03/09 08:59:34;;;;;;;48.13;20.55;;;;;;;;;;5033213;28;20031;-66
2023/03/09 09:02:00;;;;;;;49.40;19.98;;;;;;;;;;5034280;28;20116;-66
2023/03/09 09:04:26;;;;;;;46.17;20.33;;;;;;;;;;5033190;28;20458;-65
2023/03/09 09:06:52;;;;;;;49.95;20.05;;;;;;;;;;5034103;28;20026;-65
2023/03/09 09:09:17;;;;;;;50.55;20.83;;;;;;;;;;5033324;28;20033;-65
2023/03/09 09:11:42;;;;;;;51.50;19.80;;;;;;;;;;5032845;28;20029;-65
2023/03/09 09:14:08;;;;;;;48.35;19.73;;;;;;;;;;5033565;28;20358;-65
2023/03/09 09:16:33;;;;;;;50.55;20.27;;;;;;;;;;5032943;28;20378;-64
2023/03/09 09:18:59;;;;;;;47.85;19.67;;;;;;;;;;5033666;28;20049;-64
2023/03/09 09:21:24;;;;;;;49.60;20.60;;;;;;;;;;5032834;28;20031;-65
2023/03/09 09:23:50;;;;;;;45.92;19.92;;;;;;;;;;5033470;28;20037;-65
2023/03/09 09:26:16;;;;;;;43.63;19.52;;;;;;;;;;5031894;28;20529;-64
2023/03/09 09:28:43;;;;;;;43.30;19.05;;;;;;;;;;5033524;28;20040;-65
2023/03/09 09:31:12;;;;;;;44.05;19.00;;;;;;;;;;5015951;28;20039;-65
2023/03/09 09:33:38;;;;;;;46.42;18.98;;;;;;;;;;5033036;28;20060;-65
2023/03/09 09:36:14;;;;;;;46.60;20.20;;;;;;;;;;5033402;28;20022;-65
2023/03/09 09:38:40;;;;;;;42.90;18.55;;;;;;;;;;5033235;28;20117;-65
2023/03/09 09:41:14;;;;;;;42.90;18.27;;;;;;;;;;5032276;28;20033;-66
2023/03/09 09:43:41;;;;;;;39.63;18.75;;;;;;;;;;5032895;28;20033;-65
2023/03/09 09:46:11;;;;;;;38.50;18.40;;;;;;;;;;5033224;28;20053;-66
2023/03/09 09:48:40;;;;;;;38.97;17.85;;;;;;;;;;5032327;28;20429;-65
2023/03/09 09:51:16;;;;;;;43.17;18.77;;;;;;;;;;5032826;28;20102;-65
2023/03/09 09:53:48;;;;;;;40.92;18.65;;;;;;;;;;5032770;28;20112;-65
2023/03/09 09:56:17;;;;;;;42.92;18.42;;;;;;;;;;5031975;28;20497;-65
2023/03/09 09:59:05;;;;;;;41.53;18.17;;;;;;;;;;5032792;28;20071;-67
2023/03/09 10:01:45;;;;;;;43.42;19.15;;;;;;;;;;5032207;28;20029;-66
2023/03/09 10:04:28;;;;;;;40.97;18.17;;;;;;;;;;5032842;28;20029;-66
2023/03/09 10:06:57;;;;;;;40.65;18.25;;;;;;;;;;5015129;28;20026;-67
2023/03/09 10:09:26;;;;;;;42.40;18.08;;;;;;;;;;5032298;28;20033;-66
2023/03/09 10:12:06;;;;;;;42.20;18.10;;;;;;;;;;5032273;28;20033;-66
2023/03/09 10:14:36;;;;;;;40.20;17.87;;;;;;;;;;5031179;28;20117;-65
2023/03/09 10:17:18;;;;;;;39.88;17.05;;;;;;;;;;5032803;28;20470;-66
2023/03/09 10:19:46;;;;;;;39.63;16.77;;;;;;;;;;5032782;28;20021;-66
2023/03/09 10:22:16;;;;;;;41.78;18.25;;;;;;;;;;5032129;28;20484;-67
2023/03/09 10:24:45;;;;;;;41.30;16.75;;;;;;;;;;5032595;28;20052;-67
2023/03/09 10:27:16;;;;;;;43.20;18.27;;;;;;;;;;5032401;28;20037;-66
2023/03/09 10:29:52;;;;;;;41.15;16.92;;;;;;;;;;5032733;28;20500;-66
2023/03/09 10:32:21;;;;;;;37.67;16.42;;;;;;;;;;5031026;28;20038;-66
2023/03/09 10:34:52;;;;;;;43.53;18.17;;;;;;;;;;5032371;28;20100;-66
2023/03/09 10:37:32;;;;;;;41.90;18.17;;;;;;;;;;5031669;28;20045;-66
2023/03/09 10:40:00;;;;;;;42.67;18.73;;;;;;;;;;5031207;28;20079;-66
2023/03/09 10:42:26;;;;;;;42.60;19.02;;;;;;;;;;5031587;28;20033;-67
2023/03/09 10:45:23;;;;;;;44.78;18.92;;;;;;;;;;5031794;28;20056;-66
2023/03/09 10:47:57;;;;;;;51.30;19.50;;;;;;;;;;5031867;28;20520;-66
2023/03/09 10:50:27;;;;;;;46.42;19.70;;;;;;;;;;5031242;28;20040;-65
2023/03/09 10:52:54;;;;;;;56.80;20.90;;;;;;;;;;5015064;28;20068;-66
2023/03/09 10:55:27;;;;;;;50.03;19.60;;;;;;;;;;5031123;28;20033;-66
2023/03/09 10:57:57;;;;;;;53.05;20.67;;;;;;;;;;5032176;28;20036;-66
2023/03/09 11:00:23;;;;;;;54.58;20.58;;;;;;;;;;5030913;28;20446;-65
2023/03/09 11:02:54;;;;;;;54.08;20.33;;;;;;;;;;5031987;28;20041;-66
2023/03/09 11:05:22;;;;;;;55.55;20.75;;;;;;;;;;5030904;28;20436;-64
2023/03/09 11:07:53;;;;;;;49.90;20.85;;;;;;;;;;5031143;28;20398;-66
2023/03/09 11:10:30;;;;;;;51.30;19.83;;;;;;;;;;5031461;28;20432;-65
2023/03/09 11:12:57;;;;;;;51.08;19.42;;;;;;;;;;5031822;28;20026;-67
2023/03/09 11:15:25;;;;;;;53.97;20.40;;;;;;;;;;5013248;28;20032;-66
2023/03/09 11:17:50;;;;;;;53.65;20.80;;;;;;;;;;5031790;28;20112;-67
2023/03/09 11:20:24;;;;;;;49.78;20.83;;;;;;;;;;5031626;28;20113;-67
2023/03/09 11:22:58;;;;;;;49.75;20.10;;;;;;;;;;5030868;28;20029;-67
2023/03/09 11:25:32;;;;;;;50.28;20.20;;;;;;;;;;5030831;28;20037;-66
2023/03/09 11:28:27;;;;;;;48.00;20.70;;;;;;;;;;5031818;28;20030;-67
2023/03/09 11:30:55;;;;;;;44.38;19.42;;;;;;;;;;5031469;28;20056;-66
2023/03/09 11:33:21;;;;;;;49.00;20.90;;;;;;;;;;5031251;28;20481;-65
2023/03/09 11:35:51;;;;;;;45.60;20.02;;;;;;;;;;5035546;28;20029;-66
2023/03/09 11:38:19;;;;;;;46.85;18.70;;;;;;;;;;5034807;28;20040;-67
2023/03/09 11:40:47;;;;;;;46.13;19.73;;;;;;;;;;5035017;28;20075;-66
2023/03/09 11:43:36;;;;;;;45.30;20.77;;;;;;;;;;5035409;28;20374;-66
2023/03/09 11:46:05;;;;;;;46.08;19.90;;;;;;;;;;5033805;28;20083;-66
2023/03/09 11:48:33;;;;;;;47.42;19.92;;;;;;;;;;5033818;28;20053;-67
2023/03/09 11:51:08;;;;;;;44.17;19.77;;;;;;;;;;5035360;28;20065;-66
2023/03/09 11:53:39;;;;;;;45.33;20.42;;;;;;;;;;5034374;28;20505;-67
2023/03/09 11:56:22;;;;;;;48.03;19.63;;;;;;;;;;5017414;28;20485;-67
2023/03/09 11:58:53;;;;;;;43.38;19.00;;;;;;;;;;5035023;28;20037;-66
2023/03/09 12:01:24;;;;;;;39.58;18.80;;;;;;;;;;5034723;28;20116;-66
2023/03/09 12:04:01;;;;;;;40.88;18.40;;;;;;;;;;5034539;28;20037;-66
2023/03/09 12:06:51;;;;;;;43.80;20.05;;;;;;;;;;5034489;28;20068;-65
2023/03/09 12:09:51;;;;;;;41.38;19.95;;;;;;;;;;5035320;28;20029;-67
2023/03/09 12:12:31;;;;;;;37.22;18.17;;;;;;;;;;5035307;28;20038;-66
2023/03/09 12:15:10;;;;;;;36.78;17.48;;;;;;;;;;5033297;28;20131;-66
2023/03/09 12:17:42;;;;;;;40.05;18.73;;;;;;;;;;5033466;28;20045;-67
2023/03/09 12:20:19;;;;;;;45.47;21.25;;;;;;;;;;5033987;28;20025;-66
2023/03/09 12:22:45;;;;;;;53.42;22.20;;;;;;;;;;5034290;28;20025;-66
2023/03/09 12:25:22;;;;;;;50.13;21.90;;;;;;;;;;5034781;28;20036;-66
2023/03/09 12:28:00;;;;;;;50.28;21.75;;;;;;;;;;5033804;28;20047;-67
2023/03/09 12:30:30;;;;;;;56.60;21.60;;;;;;;;;;5034396;28;20033;-66
2023/03/09 12:33:00;;;;;;;54.67;23.17;;;;;;;;;;5034621;28;20036;-66
2023/03/09 12:35:26;;;;;;;52.00;22.80;;;;;;;;;;5031824;28;20066;-65
2023/03/09 12:37:51;;;;;;;61.88;24.63;;;;;;;;;;5034466;28;20304;-66
2023/03/09 12:40:17;;;;;;;59.80;24.42;;;;;;;;;;5032431;28;20373;-67
2023/03/09 12:42:48;;;;;;;60.17;24.52;;;;;;;;;;5033552;28;20179;-65
2023/03/09 12:45:16;;;;;;;;;;;;;;;;;;5034130;28;20056;-65
2023/03/09 12:47:48;;;;;;;68.57;25.08;;;;;;;;;;5033318;28;20344;-67
2023/03/09 12:50:20;;;;;;;66.30;26.63;;;;;;;;;;5034258;28;20113;-66
2023/03/09 12:52:46;;;;;;;73.78;26.42;;;;;;;;;;5033089;28;20044;-65
2023/03/09 12:55:18;;;;;;;79.30;27.67;;;;;;;;;;5033170;28;20029;-65
2023/03/09 12:57:44;;;;;;;69.93;27.42;;;;;;;;;;5033250;28;20072;-65
2023/03/09 13:00:20;;;;;;;67.70;26.13;;;;;;;;;;5034086;28;20539;-65
2023/03/09 13:02:57;;;;;;;74.03;27.10;;;;;;;;;;5033231;28;20214;-66
2023/03/09 13:05:27;;;;;;;66.20;26.27;;;;;;;;;;5034004;28;20029;-66
2023/03/09 13:08:00;;;;;;;66.60;27.15;;;;;;;;;;5033877;28;20060;-67
2023/03/09 13:10:32;;;;;;;67.13;25.92;;;;;;;;;;5032654;28;20038;-65
2023/03/09 13:13:33;;;;;;;66.88;25.75;;;;;;;;;;5016471;28;20128;-66
2023/03/09 13:16:36;;;;;;;65.30;26.05;;;;;;;;;;5030022;28;20512;-66
2023/03/09 13:19:13;;;;;;;64.10;25.10;;;;;;;;;;5033406;28;20033;-66
2023/03/09 13:21:39;;;;;;;64.50;25.85;;;;;;;;;;5031651;28;20029;-66
2023/03/09 13:24:12;;;;;;;66.85;25.55;;;;;;;;;;5033694;28;20032;-66
2023/03/09 13:26:41;;;;;;;68.63;25.02;;;;;;;;;;5032772;28;20033;-66
2023/03/09 13:29:14;;;;;;;69.85;26.73;;;;;;;;;;5033558;28;20532;-66
2023/03/09 13:31:41;;;;;;;76.63;27.70;;;;;;;;;;5032881;28;20485;-66
2023/03/09 13:34:16;;;;;;;74.20;25.83;;;;;;;;;;5032346;28;20017;-67
2023/03/09 13:36:42;;;;;;;70.05;24.95;;;;;;;;;;5032245;28;20057;-67
2023/03/09 13:39:17;;;;;;;71.40;26.40;;;;;;;;;;5032993;28;20478;-65
2023/03/09 13:41:43;;;;;;;67.30;25.70;;;;;;;;;;5032844;28;20034;-65
2023/03/09 13:44:17;;;;;;;71.20;26.33;;;;;;;;;;5033095;28;20049;-64
2023/03/09 13:46:47;;;;;;;68.35;25.63;;;;;;;;;;5014890;28;20037;-65
2023/03/09 13:49:24;;;;;;;69.15;24.73;;;;;;;;;;5032438;28;20052;-65
2023/03/09 13:51:56;;;;;;;70.05;25.48;;;;;;;;;;5032878;28;20041;-65
2023/03/09 13:54:30;;;;;;;80.47;27.15;;;;;;;;;;5033299;28;20025;-66
2023/03/09 13:57:12;;;;;;;64.85;25.08;;;;;;;;;;5032319;28;20454;-65
2023/03/09 14:00:00;;;;;;;68.55;25.30;;;;;;;;;;5032136;28;20033;-65
2023/03/09 14:02:31;;;;;;;68.78;25.17;;;;;;;;;;5014854;28;20033;-64
2023/03/09 14:04:56;;;;;;;71.50;25.88;;;;;;;;;;5032033;28;20039;-64
2023/03/09 14:07:30;;;;;;;75.70;24.42;;;;;;;;;;5032527;28;20116;-64
2023/03/09 14:10:00;;;;;;;70.55;24.25;;;;;;;;;;5032808;28;20067;-64
2023/03/09 14:12:36;;;;;;;68.22;24.13;;;;;;;;;;5032807;28;20048;-66
2023/03/09 14:15:04;;;;;;;73.25;24.95;;;;;;;;;;5032956;28;20037;-64
2023/03/09 14:17:33;;;;;;;62.08;22.88;;;;;;;;;;5031746;28;20060;-65
2023/03/09 14:19:59;;;;;;;64.55;23.00;;;;;;;;;;5031819;28;20041;-65
2023/03/09 14:22:31;;;;;;;67.28;23.15;;;;;;;;;;5014944;28;20036;-63
2023/03/09 14:24:58;;;;;;;60.08;22.20;;;;;;;;;;5032468;28;20369;-63
2023/03/09 14:27:28;;;;;;;64.30;22.85;;;;;;;;;;5032385;28;20467;-62